createdAt,value
2022-08-03T00:01:40.942Z,24.84
2022-08-03T00:04:42.958Z,24.84
2022-08-03T00:07:45.085Z,24.83
2022-08-03T00:10:47.331Z,24.84
2022-08-03T00:13:49.885Z,24.83
2022-08-03T00:16:51.951Z,24.80
2022-08-03T00:19:54.027Z,24.83
2022-08-03T00:22:56.205Z,24.80
2022-08-03T00:25:58.410Z,24.81
2022-08-03T00:29:00.569Z,24.81
2022-08-03T00:32:02.713Z,24.83
2022-08-03T00:35:09.102Z,24.82
2022-08-03T00:38:12.562Z,24.79
2022-08-03T00:41:15.694Z,24.80
2022-08-03T00:44:17.835Z,24.79
2022-08-03T00:47:19.863Z,24.80
2022-08-03T00:50:24.680Z,24.79
2022-08-03T00:53:27.967Z,24.79
2022-08-03T00:56:30.481Z,24.79
2022-08-03T00:59:32.743Z,24.78
2022-08-03T01:02:34.967Z,24.78
2022-08-03T01:05:43.040Z,24.74
2022-08-03T01:09:19.832Z,24.70
2022-08-03T01:12:40.246Z,24.68
2022-08-03T01:16:02.620Z,24.69
2022-08-03T01:19:42.740Z,24.71
2022-08-03T01:23:08.958Z,24.72
2022-08-03T01:26:25.826Z,24.72
2022-08-03T01:29:30.942Z,24.71
2022-08-03T01:33:03.775Z,24.74
2022-08-03T01:36:09.993Z,24.72
2022-08-03T01:39:12.551Z,24.73
2022-08-03T01:42:17.342Z,24.68
2022-08-03T01:45:22.636Z,24.71
2022-08-03T01:48:26.479Z,24.71
2022-08-03T01:51:58.456Z,24.69
2022-08-03T01:54:53.450Z,24.68
2022-08-03T01:58:05.873Z,24.68
2022-08-03T02:01:09.390Z,24.66
2022-08-03T02:04:14.723Z,24.66
2022-08-03T02:07:17.859Z,24.64
2022-08-03T02:10:34.213Z,24.58
2022-08-03T02:13:38.713Z,24.56
2022-08-03T02:16:41.015Z,24.57
2022-08-03T02:19:43.997Z,24.60
2022-08-03T02:22:47.258Z,24.61
2022-08-03T02:25:54.132Z,24.57
2022-08-03T02:28:58.010Z,24.57
2022-08-03T02:32:04.546Z,24.56
2022-08-03T02:35:12.685Z,24.52
2022-08-03T02:38:18.450Z,24.59
2022-08-03T02:41:24.818Z,24.61
2022-08-03T02:44:28.445Z,24.55
2022-08-03T02:47:54.035Z,24.60
2022-08-03T02:50:57.707Z,24.59
2022-08-03T02:54:03.846Z,24.54
2022-08-03T02:57:09.166Z,24.54
2022-08-03T03:00:12.700Z,24.41
2022-08-03T03:03:15.701Z,24.39
2022-08-03T03:06:19.524Z,24.41
2022-08-03T03:09:21.922Z,24.47
2022-08-03T03:12:26.145Z,24.54
2022-08-03T03:15:29.697Z,24.57
2022-08-03T03:18:34.699Z,24.53
2022-08-03T03:21:37.546Z,24.52
2022-08-03T03:24:41.886Z,24.54
2022-08-03T03:27:44.419Z,24.55
2022-08-03T03:30:53.425Z,24.57
2022-08-03T03:33:58.928Z,24.52
2022-08-03T03:37:01.713Z,24.51
2022-08-03T03:40:04.190Z,24.54
2022-08-03T03:43:10.793Z,24.54
2022-08-03T03:46:13.455Z,24.47
2022-08-03T03:49:16.131Z,24.35
2022-08-03T03:52:18.277Z,24.41
2022-08-03T03:55:20.497Z,24.54
2022-08-03T03:58:22.586Z,24.59
2022-08-03T04:01:26.957Z,24.51
2022-08-03T04:04:47.454Z,24.49
2022-08-03T04:08:22.078Z,24.51
2022-08-03T04:11:53.193Z,24.38
2022-08-03T04:14:58.009Z,24.47
2022-08-03T04:18:01.920Z,24.52
2022-08-03T04:21:08.665Z,24.60
2022-08-03T04:24:13.496Z,24.67
2022-08-03T04:27:20.911Z,24.63
2022-08-03T04:30:23.645Z,24.57
2022-08-03T04:33:29.306Z,24.54
2022-08-03T04:36:37.168Z,24.54
2022-08-03T04:39:42.186Z,24.56
2022-08-03T04:42:45.331Z,24.51
2022-08-03T04:45:48.429Z,24.63
2022-08-03T04:48:51.153Z,24.61
2022-08-03T04:51:53.493Z,24.60
2022-08-03T04:54:55.546Z,24.47
2022-08-03T04:57:58.769Z,24.46
2022-08-03T05:01:00.871Z,24.41
2022-08-03T05:04:03.882Z,24.29
2022-08-03T05:07:11.511Z,24.40
2022-08-03T05:10:16.327Z,24.52
2022-08-03T05:13:18.870Z,24.52
2022-08-03T05:16:21.014Z,24.51
2022-08-03T05:19:23.076Z,24.58
2022-08-03T05:22:25.061Z,24.52
2022-08-03T05:25:27.504Z,24.57
2022-08-03T05:28:29.899Z,24.57
2022-08-03T05:31:32.034Z,24.66
2022-08-03T05:34:34.166Z,24.66
2022-08-03T05:37:36.234Z,24.66
2022-08-03T05:40:38.278Z,24.63
2022-08-03T05:43:41.612Z,24.70
2022-08-03T05:46:43.602Z,24.70
2022-08-03T05:49:45.579Z,24.69
2022-08-03T05:52:48.016Z,24.58
2022-08-03T05:55:55.403Z,24.51
2022-08-03T05:59:11.353Z,24.53
2022-08-03T06:02:21.050Z,24.41
2022-08-03T06:05:23.172Z,24.42
2022-08-03T06:08:25.299Z,24.47
2022-08-03T06:11:27.296Z,24.51
2022-08-03T06:14:29.455Z,24.56
2022-08-03T06:17:37.077Z,24.45
2022-08-03T06:20:39.627Z,24.54
2022-08-03T06:23:54.701Z,24.63
2022-08-03T06:26:57.689Z,24.68
2022-08-03T06:30:00.380Z,24.67
2022-08-03T06:33:02.553Z,24.72
2022-08-03T06:36:04.891Z,24.77
2022-08-03T06:39:08.040Z,24.72
2022-08-03T06:42:10.738Z,24.72
2022-08-03T06:45:13.574Z,24.77
2022-08-03T06:48:15.644Z,24.67
2022-08-03T06:51:17.709Z,24.64
2022-08-03T06:54:22.355Z,24.72
2022-08-03T06:57:24.869Z,24.76
2022-08-03T07:00:28.114Z,24.80
2022-08-03T07:03:30.681Z,24.85
2022-08-03T07:06:32.874Z,24.80
2022-08-03T07:09:34.913Z,24.73
2022-08-03T07:12:38.039Z,24.82
2022-08-03T07:15:58.395Z,24.87
2022-08-03T07:19:00.358Z,24.92
2022-08-03T07:22:04.470Z,24.93
2022-08-03T07:25:07.786Z,24.97
2022-08-03T07:28:09.944Z,24.94
2022-08-03T07:31:12.110Z,25.02
2022-08-03T07:34:14.456Z,25.00
2022-08-03T07:37:16.637Z,25.03
2022-08-03T07:40:18.641Z,25.07
2022-08-03T07:43:21.062Z,25.05
2022-08-03T07:46:23.305Z,25.06
2022-08-03T07:49:28.874Z,25.07
2022-08-03T07:52:49.895Z,25.11
2022-08-03T07:55:52.489Z,25.16
2022-08-03T07:58:55.452Z,25.14
2022-08-03T08:01:57.499Z,25.21
2022-08-03T08:05:04.974Z,25.29
2022-08-03T08:08:07.997Z,25.35
2022-08-03T08:11:10.112Z,25.44
2022-08-03T08:14:12.588Z,25.49
2022-08-03T08:17:15.001Z,25.45
2022-08-03T08:20:27.818Z,25.48
2022-08-03T08:23:43.404Z,25.51
2022-08-03T08:26:47.545Z,25.49
2022-08-03T08:29:55.259Z,25.54
2022-08-03T08:33:01.077Z,25.59
2022-08-03T08:36:03.155Z,25.59
2022-08-03T08:39:05.330Z,25.66
2022-08-03T08:42:07.490Z,25.74
2022-08-03T08:45:11.932Z,25.75
2022-08-03T08:48:15.265Z,25.81
2022-08-03T08:51:19.976Z,25.84
2022-08-03T08:54:23.126Z,25.91
2022-08-03T08:57:43.310Z,25.87
2022-08-03T09:00:45.975Z,25.87
2022-08-03T09:03:48.301Z,25.89
2022-08-03T09:07:17.633Z,25.92
2022-08-03T09:10:14.481Z,25.96
2022-08-03T09:13:16.691Z,26.00
2022-08-03T09:16:21.501Z,26.01
2022-08-03T09:19:23.558Z,25.99
2022-08-03T09:22:25.947Z,25.94
2022-08-03T09:25:33.930Z,25.99
2022-08-03T09:28:53.895Z,26.08
2022-08-03T09:32:04.587Z,26.13
2022-08-03T09:35:09.340Z,26.12
2022-08-03T09:38:15.555Z,26.09
2022-08-03T09:41:19.151Z,26.06
2022-08-03T09:44:34.930Z,26.12
2022-08-03T09:47:45.139Z,26.12
2022-08-03T09:51:13.026Z,26.24
2022-08-03T09:54:28.708Z,26.34
2022-08-03T09:57:31.352Z,26.33
2022-08-03T10:00:52.665Z,26.26
2022-08-03T10:04:04.303Z,26.28
2022-08-03T10:07:11.181Z,26.33
2022-08-03T10:10:29.013Z,26.38
2022-08-03T10:13:34.139Z,26.36
2022-08-03T10:16:40.071Z,26.35
2022-08-03T10:19:42.442Z,26.28
2022-08-03T10:22:44.739Z,26.27
2022-08-03T10:25:49.626Z,26.34
2022-08-03T10:28:54.549Z,26.43
2022-08-03T10:31:59.587Z,26.43
2022-08-03T10:35:19.730Z,26.37
2022-08-03T10:38:29.614Z,26.42
2022-08-03T10:41:36.593Z,26.52
2022-08-03T10:44:42.525Z,26.54
2022-08-03T10:47:45.501Z,26.50
2022-08-03T10:50:49.809Z,26.57
2022-08-03T10:53:54.744Z,26.58
2022-08-03T10:57:16.378Z,26.57
2022-08-03T11:00:25.688Z,26.71
2022-08-03T11:03:30.218Z,26.84
2022-08-03T11:06:37.632Z,26.78
2022-08-03T11:09:44.758Z,26.79
2022-08-03T11:12:47.997Z,26.76
2022-08-03T11:15:52.412Z,26.91
2022-08-03T11:19:05.141Z,26.87
2022-08-03T11:22:07.561Z,26.82
2022-08-03T11:25:09.572Z,26.79
2022-08-03T11:28:33.724Z,26.82
2022-08-03T11:31:49.692Z,26.91
2022-08-03T11:35:22.207Z,26.94
2022-08-03T11:38:24.793Z,26.88
2022-08-03T11:41:45.251Z,26.86
2022-08-03T11:44:47.980Z,26.82
2022-08-03T11:47:54.505Z,26.75
2022-08-03T11:50:57.093Z,26.77
2022-08-03T11:54:07.438Z,26.62
2022-08-03T11:57:09.992Z,26.76
2022-08-03T12:00:24.270Z,26.80
2022-08-03T12:03:33.157Z,26.78
2022-08-03T12:06:55.890Z,26.77
2022-08-03T12:10:08.053Z,26.77
2022-08-03T12:14:10.662Z,26.78
2022-08-03T12:17:11.331Z,26.67
2022-08-03T12:20:34.991Z,26.68
2022-08-03T12:23:38.556Z,26.69
2022-08-03T12:26:56.771Z,26.74
2022-08-03T12:30:02.166Z,26.81
2022-08-03T12:33:26.979Z,26.88
2022-08-03T12:36:31.557Z,26.90
2022-08-03T12:39:33.828Z,26.93
2022-08-03T12:42:37.721Z,26.87
2022-08-03T12:45:40.352Z,26.83
2022-08-03T12:49:00.197Z,26.79
2022-08-03T12:52:07.035Z,26.66
2022-08-03T12:55:20.545Z,26.72
2022-08-03T12:58:33.787Z,26.69
2022-08-03T13:01:54.877Z,26.62
2022-08-03T13:04:57.775Z,26.55
2022-08-03T13:07:59.928Z,26.42
2022-08-03T13:11:21.590Z,26.31
2022-08-03T13:14:23.969Z,26.23
2022-08-03T13:17:27.241Z,26.13
2022-08-03T13:20:31.869Z,26.10
2022-08-03T13:23:36.424Z,26.10
2022-08-03T13:26:38.517Z,26.12
2022-08-03T13:29:40.602Z,26.14
2022-08-03T13:32:42.663Z,26.20
2022-08-03T13:35:44.748Z,26.25
2022-08-03T13:38:46.778Z,26.33
2022-08-03T13:41:50.351Z,26.41
2022-08-03T13:44:52.638Z,26.37
2022-08-03T13:47:54.845Z,26.37
2022-08-03T13:50:56.922Z,26.41
2022-08-03T13:53:59.915Z,26.39
2022-08-03T13:58:01.229Z,26.37
2022-08-03T14:00:27.280Z,26.44
2022-08-03T14:03:30.961Z,26.46
2022-08-03T14:06:33.102Z,26.44
2022-08-03T14:09:35.172Z,26.52
2022-08-03T14:12:37.216Z,26.58
2022-08-03T14:15:39.434Z,26.66
2022-08-03T14:18:42.447Z,26.66
2022-08-03T14:21:45.580Z,26.66
2022-08-03T14:25:02.421Z,26.67
2022-08-03T14:28:06.106Z,26.66
2022-08-03T14:32:09.200Z,26.65
2022-08-03T14:34:30.434Z,26.64
2022-08-03T14:37:35.971Z,26.65
2022-08-03T14:40:38.120Z,26.68
2022-08-03T14:43:40.309Z,26.66
2022-08-03T14:47:02.411Z,26.68
2022-08-03T14:50:37.582Z,26.68
2022-08-03T14:53:31.760Z,26.63
2022-08-03T14:56:39.537Z,26.78
2022-08-03T14:59:55.952Z,26.71
2022-08-03T15:03:04.773Z,26.73
2022-08-03T15:06:09.758Z,26.75
2022-08-03T15:09:21.200Z,26.71
2022-08-03T15:12:28.729Z,26.65
2022-08-03T15:15:30.959Z,26.63
2022-08-03T15:18:33.372Z,26.60
2022-08-03T15:21:46.104Z,26.56
2022-08-03T15:24:49.964Z,26.59
2022-08-03T15:28:02.671Z,26.56
2022-08-03T15:31:07.056Z,26.57
2022-08-03T15:34:26.955Z,26.52
2022-08-03T15:37:52.062Z,26.38
2022-08-03T15:40:55.364Z,26.41
2022-08-03T15:43:59.897Z,26.50
2022-08-03T15:47:03.721Z,26.46
2022-08-03T15:50:09.597Z,26.42
2022-08-03T15:53:12.068Z,26.43
2022-08-03T15:56:18.248Z,26.40
2022-08-03T15:59:20.948Z,26.27
2022-08-03T16:02:23.054Z,26.36
2022-08-03T16:05:26.049Z,26.34
2022-08-03T16:08:28.103Z,26.31
2022-08-03T16:11:30.633Z,26.20
2022-08-03T16:14:43.399Z,26.20
2022-08-03T16:17:53.071Z,26.21
2022-08-03T16:20:55.171Z,26.20
2022-08-03T16:23:58.139Z,26.16
2022-08-03T16:27:00.887Z,26.10
2022-08-03T16:30:06.232Z,26.14
2022-08-03T16:33:08.382Z,26.12
2022-08-03T16:36:10.392Z,26.10
2022-08-03T16:39:15.355Z,26.07
2022-08-03T16:42:17.675Z,26.07
2022-08-03T16:48:53.946Z,26.03
2022-08-03T16:51:56.057Z,26.00
2022-08-03T16:55:01.030Z,26.00
2022-08-03T16:58:05.511Z,25.97
2022-08-03T17:01:22.507Z,25.86
2022-08-03T17:04:27.571Z,25.89
2022-08-03T17:07:31.235Z,25.88
2022-08-03T17:10:33.595Z,25.87
2022-08-03T17:13:39.922Z,25.87
2022-08-03T17:16:53.865Z,25.85
2022-08-03T17:19:58.379Z,25.84
2022-08-03T17:23:33.932Z,25.82
2022-08-03T17:26:37.806Z,25.78
2022-08-03T17:29:51.541Z,25.79
2022-08-03T17:32:57.527Z,25.75
2022-08-03T17:36:00.358Z,25.76
2022-08-03T17:39:04.982Z,25.73
2022-08-03T17:42:30.769Z,25.67
2022-08-03T17:45:52.301Z,25.68
2022-08-03T17:48:54.348Z,25.58
2022-08-03T17:52:06.189Z,25.64
2022-08-03T17:55:56.673Z,25.65
2022-08-03T17:59:08.701Z,25.62
2022-08-03T18:02:32.862Z,25.58
2022-08-03T18:06:10.493Z,25.54
2022-08-03T18:09:04.915Z,25.56
2022-08-03T18:12:29.026Z,25.59
2022-08-03T18:15:50.477Z,25.53
2022-08-03T18:19:00.415Z,25.52
2022-08-03T18:22:13.318Z,25.52
2022-08-03T18:25:15.890Z,25.52
2022-08-03T18:28:19.236Z,25.48
2022-08-03T18:31:59.435Z,25.46
2022-08-03T18:34:53.152Z,25.45
2022-08-03T18:37:58.511Z,25.43
2022-08-03T18:41:03.575Z,25.47
2022-08-03T18:44:52.834Z,25.46
2022-08-03T18:47:52.304Z,25.48
2022-08-03T18:51:09.927Z,25.46
2022-08-03T18:54:45.623Z,25.45
2022-08-03T18:57:48.998Z,25.45
2022-08-03T19:01:57.427Z,25.45
2022-08-03T19:04:35.358Z,25.45
2022-08-03T19:07:42.661Z,25.44
2022-08-03T19:11:06.207Z,25.43
2022-08-03T19:14:11.471Z,25.42
2022-08-03T19:17:14.364Z,25.41
2022-08-03T19:20:30.779Z,25.41
2022-08-03T19:23:34.241Z,25.41
2022-08-03T19:26:38.639Z,25.41
2022-08-03T19:29:59.328Z,25.40
2022-08-03T19:33:05.034Z,25.38
2022-08-03T19:36:10.850Z,25.37
2022-08-03T19:39:14.361Z,25.35
2022-08-03T19:42:29.084Z,25.35
2022-08-03T19:46:04.996Z,25.34
2022-08-03T19:49:03.305Z,25.31
2022-08-03T19:52:11.696Z,25.30
2022-08-03T19:55:16.704Z,25.28
2022-08-03T19:58:28.820Z,25.26
2022-08-03T20:01:31.471Z,25.23
2022-08-03T20:04:53.388Z,25.25
2022-08-03T20:07:59.319Z,25.25
2022-08-03T20:11:02.294Z,25.24
2022-08-03T20:14:05.328Z,25.25
2022-08-03T20:17:09.918Z,25.25
2022-08-03T20:20:13.536Z,25.25
2022-08-03T20:23:20.248Z,25.26
2022-08-03T20:26:29.509Z,25.26
2022-08-03T20:30:05.186Z,25.24
2022-08-03T20:32:59.158Z,25.19
2022-08-03T20:36:02.540Z,25.21
2022-08-03T20:39:07.761Z,25.19
2022-08-03T20:42:10.419Z,25.16
2022-08-03T20:46:01.009Z,25.14
2022-08-03T20:48:37.478Z,25.21
2022-08-03T20:51:50.578Z,25.13
2022-08-03T20:54:55.937Z,25.15
2022-08-03T20:57:59.124Z,25.19
2022-08-03T21:01:02.744Z,25.18
2022-08-03T21:04:07.477Z,25.15
2022-08-03T21:07:18.720Z,25.16
2022-08-03T21:10:30.292Z,25.14
2022-08-03T21:13:58.512Z,25.13
2022-08-03T21:17:09.409Z,25.12
2022-08-03T21:20:16.618Z,25.12
2022-08-03T21:23:37.112Z,25.09
2022-08-03T21:26:47.562Z,25.09
2022-08-03T21:29:53.470Z,25.11
2022-08-03T21:32:57.778Z,25.13
2022-08-03T21:36:01.946Z,25.09
2022-08-03T21:39:09.019Z,25.08
2022-08-03T21:42:12.466Z,25.14
2022-08-03T21:45:17.302Z,25.14
2022-08-03T21:48:24.286Z,25.13
2022-08-03T21:51:29.656Z,25.16
2022-08-03T21:54:37.651Z,25.08
2022-08-03T21:57:44.034Z,25.13
2022-08-03T22:00:46.432Z,25.13
2022-08-03T22:03:51.085Z,25.12
2022-08-03T22:06:56.794Z,25.12
2022-08-03T22:10:02.232Z,25.13
2022-08-03T22:13:04.494Z,25.12
2022-08-03T22:16:07.511Z,25.00
2022-08-03T22:19:09.672Z,25.08
2022-08-03T22:22:14.101Z,25.08
2022-08-03T22:25:17.121Z,25.07
2022-08-03T22:28:22.012Z,25.11
2022-08-03T22:31:30.857Z,25.10
2022-08-03T22:34:49.312Z,25.09
2022-08-03T22:37:55.565Z,25.08
2022-08-03T22:40:57.959Z,25.05
2022-08-03T22:44:04.677Z,25.02
2022-08-03T22:47:07.382Z,24.96
2022-08-03T22:50:31.355Z,25.03
2022-08-03T22:53:34.876Z,24.98
2022-08-03T22:56:38.918Z,25.01
2022-08-03T22:59:42.082Z,25.05
2022-08-03T23:02:48.084Z,25.06
2022-08-03T23:06:02.272Z,25.06
2022-08-03T23:09:13.205Z,25.09
2022-08-03T23:12:19.738Z,25.06
2022-08-03T23:15:24.884Z,25.07
2022-08-03T23:18:37.279Z,25.03
2022-08-03T23:21:53.721Z,25.02
2022-08-03T23:25:04.902Z,24.97
2022-08-03T23:28:09.130Z,25.00
2022-08-03T23:31:13.963Z,25.02
2022-08-03T23:34:36.509Z,25.04
2022-08-03T23:38:04.195Z,25.01
2022-08-03T23:41:04.519Z,25.04
2022-08-03T23:44:07.859Z,24.99
2022-08-03T23:47:10.127Z,25.00
2022-08-03T23:50:13.010Z,25.06
2022-08-03T23:53:23.605Z,25.03
2022-08-03T23:56:53.206Z,25.02
